createdAt,value
2023-01-06T00:00:01.272Z,5.9
2023-01-06T00:01:00.462Z,5.93
2023-01-06T00:02:00.568Z,5.96
2023-01-06T00:03:00.730Z,5.99
2023-01-06T00:04:00.849Z,6.01
2023-01-06T00:05:01.018Z,6.05
2023-01-06T00:06:01.155Z,6.08
2023-01-06T00:07:00.296Z,6.1
2023-01-06T00:08:00.451Z,6.12
2023-01-06T00:09:00.621Z,6.14
2023-01-06T00:10:00.739Z,6.15
2023-01-06T00:11:00.881Z,6.2
2023-01-06T00:12:01.041Z,6.2
2023-01-06T00:13:01.195Z,6.21
2023-01-06T00:14:00.349Z,6.24
2023-01-06T00:15:00.477Z,6.25
2023-01-06T00:16:00.689Z,6.25
2023-01-06T00:17:00.765Z,6.26
2023-01-06T00:18:00.923Z,6.26
2023-01-06T00:19:01.094Z,6.26
2023-01-06T00:20:01.198Z,6.25
2023-01-06T00:21:00.359Z,6.26
2023-01-06T00:22:00.500Z,6.26
2023-01-06T00:23:00.662Z,6.28
2023-01-06T00:24:00.844Z,6.3
2023-01-06T00:25:00.960Z,6.31
2023-01-06T00:26:01.112Z,6.33
2023-01-06T00:27:01.250Z,6.34
2023-01-06T00:28:00.383Z,6.34
2023-01-06T00:29:00.562Z,6.34
2023-01-06T00:30:00.720Z,6.34
2023-01-06T00:31:00.877Z,6.33
2023-01-06T00:32:00.988Z,6.31
2023-01-06T00:33:01.140Z,6.31
2023-01-06T00:34:00.306Z,6.33
2023-01-06T00:35:00.407Z,6.33
2023-01-06T00:36:00.582Z,6.34
2023-01-06T00:37:00.732Z,6.34
2023-01-06T00:38:00.885Z,6.34
2023-01-06T00:39:01.057Z,6.34
2023-01-06T00:40:01.174Z,6.35
2023-01-06T00:41:00.326Z,6.36
2023-01-06T00:42:00.481Z,6.38
2023-01-06T00:43:00.609Z,6.41
2023-01-06T00:44:00.786Z,6.42
2023-01-06T00:45:00.909Z,6.44
2023-01-06T00:46:01.082Z,6.46
2023-01-06T00:47:01.198Z,6.5
2023-01-06T00:48:00.352Z,6.51
2023-01-06T00:49:04.965Z,6.52
2023-01-06T00:50:00.622Z,6.52
2023-01-06T00:51:00.782Z,6.53
2023-01-06T00:52:00.928Z,6.54
2023-01-06T00:53:01.093Z,6.55
2023-01-06T00:54:01.247Z,6.56
2023-01-06T00:55:00.383Z,6.57
2023-01-06T00:56:00.531Z,6.58
2023-01-06T00:57:00.688Z,6.6
2023-01-06T00:58:00.873Z,6.61
2023-01-06T00:59:00.997Z,6.63
2023-01-06T01:00:01.162Z,6.64
2023-01-06T01:01:00.270Z,6.65
2023-01-06T01:02:00.623Z,6.67
2023-01-06T01:03:00.641Z,6.67
2023-01-06T01:04:00.766Z,6.68
2023-01-06T01:05:00.893Z,6.68
2023-01-06T01:06:01.025Z,6.68
2023-01-06T01:07:01.199Z,6.68
2023-01-06T01:08:00.309Z,6.68
2023-01-06T01:09:00.471Z,6.68
2023-01-06T01:10:00.630Z,6.68
2023-01-06T01:11:02.592Z,6.67
2023-01-06T01:12:00.918Z,6.67
2023-01-06T01:13:01.060Z,6.67
2023-01-06T01:14:01.213Z,6.66
2023-01-06T01:15:00.355Z,6.67
2023-01-06T01:16:00.572Z,6.68
2023-01-06T01:17:00.667Z,6.69
2023-01-06T01:18:00.814Z,6.7
2023-01-06T01:19:00.947Z,6.72
2023-01-06T01:20:01.301Z,6.73
2023-01-06T01:21:01.277Z,6.73
2023-01-06T01:22:00.409Z,6.74
2023-01-06T01:23:00.551Z,6.75
2023-01-06T01:24:00.692Z,6.75
2023-01-06T01:25:00.839Z,6.76
2023-01-06T01:26:01.005Z,6.78
2023-01-06T01:27:01.135Z,6.79
2023-01-06T01:28:00.280Z,6.79
2023-01-06T01:29:00.427Z,6.79
2023-01-06T01:30:00.585Z,6.8
2023-01-06T01:31:00.796Z,6.8
2023-01-06T01:32:00.865Z,6.8
2023-01-06T01:33:01.020Z,6.81
2023-01-06T01:34:01.167Z,6.81
2023-01-06T01:35:00.322Z,6.82
2023-01-06T01:36:00.476Z,6.83
2023-01-06T01:37:00.626Z,6.84
2023-01-06T01:38:00.761Z,6.85
2023-01-06T01:39:00.903Z,6.86
2023-01-06T01:40:01.076Z,6.87
2023-01-06T01:41:01.232Z,6.88
2023-01-06T01:42:00.361Z,6.9
2023-01-06T01:43:00.483Z,6.9
2023-01-06T01:44:00.632Z,6.91
2023-01-06T01:45:00.787Z,6.93
2023-01-06T01:46:00.952Z,6.94
2023-01-06T01:47:01.069Z,6.96
2023-01-06T01:48:01.224Z,6.97
2023-01-06T01:49:00.373Z,6.98
2023-01-06T01:50:00.529Z,6.98
2023-01-06T01:51:00.673Z,6.99
2023-01-06T01:52:00.827Z,7
2023-01-06T01:53:00.963Z,7.01
2023-01-06T01:54:01.143Z,7.01
2023-01-06T01:55:00.265Z,7.01
2023-01-06T01:56:00.422Z,7.01
2023-01-06T01:57:00.624Z,7.01
2023-01-06T01:58:00.717Z,7.01
2023-01-06T01:59:00.851Z,7
2023-01-06T02:00:01.013Z,7
2023-01-06T02:01:01.137Z,6.99
2023-01-06T02:02:00.481Z,6.99
2023-01-06T02:03:00.539Z,7
2023-01-06T02:04:00.579Z,7
2023-01-06T02:05:00.780Z,7
2023-01-06T02:06:00.863Z,6.99
2023-01-06T02:07:01.010Z,6.99
2023-01-06T02:08:01.159Z,6.99
2023-01-06T02:09:00.312Z,6.98
2023-01-06T02:10:00.496Z,6.98
2023-01-06T02:11:00.602Z,6.98
2023-01-06T02:12:00.757Z,6.97
2023-01-06T02:13:00.901Z,6.96
2023-01-06T02:14:01.049Z,6.96
2023-01-06T02:15:01.212Z,6.96
2023-01-06T02:16:00.377Z,6.96
2023-01-06T02:17:00.503Z,6.96
2023-01-06T02:18:00.632Z,6.96
2023-01-06T02:19:00.799Z,6.96
2023-01-06T02:20:00.937Z,6.95
2023-01-06T02:21:01.098Z,6.95
2023-01-06T02:22:01.226Z,6.95
2023-01-06T02:23:00.374Z,6.95
2023-01-06T02:24:00.519Z,6.96
2023-01-06T02:25:00.669Z,6.98
2023-01-06T02:26:00.819Z,6.99
2023-01-06T02:27:00.965Z,6.99
2023-01-06T02:28:01.101Z,6.99
2023-01-06T02:29:01.294Z,7
2023-01-06T02:30:00.425Z,7
2023-01-06T02:31:00.603Z,6.99
2023-01-06T02:32:00.710Z,6.99
2023-01-06T02:33:00.882Z,7
2023-01-06T02:34:01.012Z,7.01
2023-01-06T02:35:01.158Z,7.01
2023-01-06T02:36:00.312Z,7.01
2023-01-06T02:37:00.469Z,7.01
2023-01-06T02:38:00.605Z,7.01
2023-01-06T02:39:00.740Z,7.02
2023-01-06T02:40:00.878Z,7.02
2023-01-06T02:41:01.026Z,7.03
2023-01-06T02:42:01.202Z,7.02
2023-01-06T02:43:00.326Z,7.02
2023-01-06T02:44:00.482Z,7.02
2023-01-06T02:45:00.622Z,7.01
2023-01-06T02:46:00.868Z,7.02
2023-01-06T02:47:00.930Z,7.03
2023-01-06T02:48:01.049Z,7.04
2023-01-06T02:49:01.204Z,7.05
2023-01-06T02:50:00.363Z,7.05
2023-01-06T02:51:00.494Z,7.08
2023-01-06T02:52:00.646Z,7.09
2023-01-06T02:53:00.791Z,7.1
2023-01-06T02:54:00.929Z,7.12
2023-01-06T02:55:01.054Z,7.12
2023-01-06T02:56:01.206Z,7.12
2023-01-06T02:57:00.369Z,7.13
2023-01-06T02:58:00.506Z,7.15
2023-01-06T02:59:00.694Z,7.15
2023-01-06T03:00:00.793Z,7.16
2023-01-06T03:01:00.939Z,7.18
2023-01-06T03:02:01.255Z,7.2
2023-01-06T03:03:01.237Z,7.23
2023-01-06T03:04:00.389Z,7.25
2023-01-06T03:05:00.529Z,7.27
2023-01-06T03:06:00.703Z,7.28
2023-01-06T03:07:00.834Z,7.29
2023-01-06T03:08:00.986Z,7.3
2023-01-06T03:09:01.149Z,7.31
2023-01-06T03:10:00.279Z,7.3
2023-01-06T03:11:00.451Z,7.31
2023-01-06T03:12:00.587Z,7.32
2023-01-06T03:13:00.734Z,7.33
2023-01-06T03:14:00.914Z,7.33
2023-01-06T03:15:01.040Z,7.34
2023-01-06T03:16:01.229Z,7.35
2023-01-06T03:17:00.319Z,7.35
2023-01-06T03:18:00.485Z,7.37
2023-01-06T03:19:00.642Z,7.38
2023-01-06T03:20:00.777Z,7.38
2023-01-06T03:21:00.922Z,7.39
2023-01-06T03:22:01.074Z,7.4
2023-01-06T03:23:01.218Z,7.41
2023-01-06T03:24:00.383Z,7.42
2023-01-06T03:25:00.528Z,7.43
2023-01-06T03:26:00.665Z,7.43
2023-01-06T03:27:00.850Z,7.45
2023-01-06T03:28:00.967Z,7.46
2023-01-06T03:29:01.147Z,7.48
2023-01-06T03:30:00.281Z,7.5
2023-01-06T03:31:00.478Z,7.53
2023-01-06T03:32:00.576Z,7.54
2023-01-06T03:33:00.711Z,7.54
2023-01-06T03:34:00.873Z,7.55
2023-01-06T03:35:01.036Z,7.55
2023-01-06T03:36:01.167Z,7.56
2023-01-06T03:37:00.308Z,7.57
2023-01-06T03:38:00.479Z,7.58
2023-01-06T03:39:00.618Z,7.57
2023-01-06T03:40:00.782Z,7.58
2023-01-06T03:41:00.914Z,7.58
2023-01-06T03:42:01.055Z,7.59
2023-01-06T03:43:01.199Z,7.58
2023-01-06T03:44:00.356Z,7.59
2023-01-06T03:45:00.514Z,7.59
2023-01-06T03:46:00.680Z,7.59
2023-01-06T03:47:00.819Z,7.59
2023-01-06T03:48:00.966Z,7.59
2023-01-06T03:49:01.116Z,7.59
2023-01-06T03:50:01.255Z,7.59
2023-01-06T03:51:00.433Z,7.59
2023-01-06T03:52:00.572Z,7.58
2023-01-06T03:53:00.713Z,7.57
2023-01-06T03:54:00.852Z,7.56
2023-01-06T03:55:01.031Z,7.56
2023-01-06T03:56:01.175Z,7.55
2023-01-06T03:57:00.303Z,7.55
2023-01-06T03:58:00.448Z,7.55
2023-01-06T03:59:00.595Z,7.56
2023-01-06T04:00:00.745Z,7.57
2023-01-06T04:01:00.941Z,7.59
2023-01-06T04:02:01.026Z,7.59
2023-01-06T04:03:01.188Z,7.59
2023-01-06T04:04:00.454Z,7.6
2023-01-06T04:05:00.489Z,7.6
2023-01-06T04:06:00.632Z,7.6
2023-01-06T04:07:00.770Z,7.6
2023-01-06T04:08:00.909Z,7.59
2023-01-06T04:09:01.059Z,7.59
2023-01-06T04:10:01.210Z,7.59
2023-01-06T04:11:00.368Z,7.6
2023-01-06T04:12:00.546Z,7.6
2023-01-06T04:13:00.647Z,7.62
2023-01-06T04:14:00.785Z,7.62
2023-01-06T04:15:00.945Z,7.64
2023-01-06T04:16:01.111Z,7.64
2023-01-06T04:17:01.273Z,7.65
2023-01-06T04:18:00.370Z,7.65
2023-01-06T04:19:00.524Z,7.68
2023-01-06T04:20:00.669Z,7.69
2023-01-06T04:21:00.812Z,7.7
2023-01-06T04:22:00.995Z,7.7
2023-01-06T04:23:01.120Z,7.71
2023-01-06T04:24:01.255Z,7.71
2023-01-06T04:25:00.402Z,7.72
2023-01-06T04:26:00.557Z,7.73
2023-01-06T04:27:00.736Z,7.72
2023-01-06T04:28:00.856Z,7.73
2023-01-06T04:29:00.996Z,7.73
2023-01-06T04:30:01.146Z,7.72
2023-01-06T04:31:00.296Z,7.72
2023-01-06T04:32:00.463Z,7.73
2023-01-06T04:33:00.613Z,7.73
2023-01-06T04:34:00.757Z,7.73
2023-01-06T04:35:00.901Z,7.73
2023-01-06T04:36:01.067Z,7.72
2023-01-06T04:37:01.228Z,7.73
2023-01-06T04:38:00.350Z,7.73
2023-01-06T04:39:00.498Z,7.73
2023-01-06T04:40:00.676Z,7.73
2023-01-06T04:41:00.793Z,7.73
2023-01-06T04:42:00.961Z,7.73
2023-01-06T04:43:01.087Z,7.74
2023-01-06T04:44:01.229Z,7.75
2023-01-06T04:45:00.366Z,7.76
2023-01-06T04:46:00.637Z,7.76
2023-01-06T04:47:00.682Z,7.76
2023-01-06T04:48:00.844Z,7.75
2023-01-06T04:49:00.971Z,7.75
2023-01-06T04:50:01.121Z,7.75
2023-01-06T04:51:00.276Z,7.74
2023-01-06T04:52:00.422Z,7.74
2023-01-06T04:53:00.587Z,7.73
2023-01-06T04:54:00.706Z,7.73
2023-01-06T04:55:00.854Z,7.72
2023-01-06T04:56:01.007Z,7.73
2023-01-06T04:57:01.139Z,7.72
2023-01-06T04:58:00.317Z,7.73
2023-01-06T04:59:00.438Z,7.73
2023-01-06T05:00:00.625Z,7.73
2023-01-06T05:01:00.796Z,7.72
2023-01-06T05:02:00.940Z,7.72
2023-01-06T05:03:01.070Z,7.73
2023-01-06T05:04:01.279Z,7.73
2023-01-06T05:05:00.354Z,7.73
2023-01-06T05:06:00.487Z,7.74
2023-01-06T05:07:00.640Z,7.74
2023-01-06T05:08:00.786Z,7.75
2023-01-06T05:09:00.917Z,7.75
2023-01-06T05:10:01.065Z,7.76
2023-01-06T05:11:01.213Z,7.76
2023-01-06T05:12:00.362Z,7.76
2023-01-06T05:13:00.535Z,7.77
2023-01-06T05:14:00.705Z,7.77
2023-01-06T05:15:00.830Z,7.78
2023-01-06T05:16:01.069Z,7.78
2023-01-06T05:17:01.134Z,7.79
2023-01-06T05:18:00.294Z,7.79
2023-01-06T05:19:00.441Z,7.79
2023-01-06T05:20:00.589Z,7.81
2023-01-06T05:21:00.742Z,7.81
2023-01-06T05:22:00.898Z,7.81
2023-01-06T05:23:01.014Z,7.81
2023-01-06T05:24:01.167Z,7.81
2023-01-06T05:25:00.340Z,7.79
2023-01-06T05:26:00.468Z,7.78
2023-01-06T05:27:00.654Z,7.78
2023-01-06T05:28:00.768Z,7.77
2023-01-06T05:29:00.915Z,7.77
2023-01-06T05:30:01.065Z,7.77
2023-01-06T05:31:01.197Z,7.77
2023-01-06T05:32:00.377Z,7.77
2023-01-06T05:33:00.497Z,7.77
2023-01-06T05:34:00.639Z,7.77
2023-01-06T05:35:00.791Z,7.77
2023-01-06T05:36:00.936Z,7.77
2023-01-06T05:37:01.101Z,7.77
2023-01-06T05:38:01.260Z,7.78
2023-01-06T05:39:00.397Z,7.79
2023-01-06T05:40:00.549Z,7.79
2023-01-06T05:41:00.692Z,7.81
2023-01-06T05:42:00.861Z,7.82
2023-01-06T05:43:01.011Z,7.82
2023-01-06T05:44:01.160Z,7.82
2023-01-06T05:45:00.313Z,7.82
2023-01-06T05:46:00.508Z,7.83
2023-01-06T05:47:00.638Z,7.84
2023-01-06T05:48:00.759Z,7.84
2023-01-06T05:49:00.903Z,7.84
2023-01-06T05:50:01.083Z,7.84
2023-01-06T05:51:01.201Z,7.85
2023-01-06T05:52:00.376Z,7.85
2023-01-06T05:53:00.513Z,7.85
2023-01-06T05:54:00.659Z,7.85
2023-01-06T05:55:00.833Z,7.85
2023-01-06T05:56:00.938Z,7.85
2023-01-06T05:57:01.077Z,7.85
2023-01-06T05:58:01.230Z,7.85
2023-01-06T05:59:00.375Z,7.85
2023-01-06T06:00:00.533Z,7.85
2023-01-06T06:01:00.690Z,7.85
2023-01-06T06:02:00.844Z,7.85
2023-01-06T06:03:00.986Z,7.86
2023-01-06T06:04:01.125Z,7.87
2023-01-06T06:05:01.237Z,7.87
2023-01-06T06:06:00.390Z,7.87
2023-01-06T06:07:00.558Z,7.87
2023-01-06T06:08:00.701Z,7.87
2023-01-06T06:09:00.843Z,7.88
2023-01-06T06:10:00.997Z,7.9
2023-01-06T06:11:01.143Z,7.91
2023-01-06T06:12:00.287Z,7.92
2023-01-06T06:13:00.464Z,7.94
2023-01-06T06:14:00.618Z,7.94
2023-01-06T06:15:00.754Z,7.96
2023-01-06T06:16:00.883Z,7.98
2023-01-06T06:17:01.029Z,8
2023-01-06T06:18:01.186Z,8.03
2023-01-06T06:19:00.343Z,8.05
2023-01-06T06:20:00.495Z,8.06
2023-01-06T06:21:00.629Z,8.07
2023-01-06T06:22:00.774Z,8.08
2023-01-06T06:23:00.918Z,8.11
2023-01-06T06:24:01.055Z,8.12
2023-01-06T06:25:01.251Z,8.13
2023-01-06T06:26:00.366Z,8.14
2023-01-06T06:27:00.511Z,8.16
2023-01-06T06:28:00.659Z,8.18
2023-01-06T06:29:00.796Z,8.19
2023-01-06T06:30:00.971Z,8.19
2023-01-06T06:31:01.137Z,8.19
2023-01-06T06:32:01.246Z,8.2
2023-01-06T06:33:00.396Z,8.2
2023-01-06T06:34:00.556Z,8.21
2023-01-06T06:35:00.720Z,8.22
2023-01-06T06:36:00.847Z,8.23
2023-01-06T06:37:00.995Z,8.23
2023-01-06T06:38:01.156Z,8.24
2023-01-06T06:39:00.281Z,8.27
2023-01-06T06:40:00.449Z,8.28
2023-01-06T06:41:00.571Z,8.29
2023-01-06T06:42:00.716Z,8.29
2023-01-06T06:43:00.887Z,8.28
2023-01-06T06:44:01.021Z,8.27
2023-01-06T06:45:01.198Z,8.27
2023-01-06T06:46:00.382Z,8.29
2023-01-06T06:47:00.470Z,8.29
2023-01-06T06:48:00.636Z,8.3
2023-01-06T06:49:00.775Z,8.31
2023-01-06T06:50:00.923Z,8.31
2023-01-06T06:51:01.130Z,8.31
2023-01-06T06:52:01.284Z,8.32
2023-01-06T06:53:00.406Z,8.32
2023-01-06T06:54:00.551Z,8.32
2023-01-06T06:55:00.718Z,8.33
2023-01-06T06:56:00.854Z,8.35
2023-01-06T06:57:00.980Z,8.36
2023-01-06T06:58:01.171Z,8.36
2023-01-06T06:59:00.274Z,8.37
2023-01-06T07:00:00.422Z,8.37
2023-01-06T07:01:00.619Z,8.37
2023-01-06T07:02:00.829Z,8.39
2023-01-06T07:03:00.888Z,8.41
2023-01-06T07:04:01.011Z,8.43
2023-01-06T07:05:01.163Z,8.45
2023-01-06T07:06:00.312Z,8.46
2023-01-06T07:07:00.483Z,8.48
2023-01-06T07:08:00.603Z,8.49
2023-01-06T07:09:00.756Z,8.49
2023-01-06T07:10:00.902Z,8.48
2023-01-06T07:11:01.047Z,8.47
2023-01-06T07:12:01.197Z,8.46
2023-01-06T07:13:00.339Z,8.45
2023-01-06T07:14:00.486Z,8.45
2023-01-06T07:15:00.644Z,8.45
2023-01-06T07:16:00.822Z,8.44
2023-01-06T07:17:00.966Z,8.43
2023-01-06T07:18:01.089Z,8.42
2023-01-06T07:19:01.235Z,8.42
2023-01-06T07:20:00.376Z,8.42
2023-01-06T07:21:00.528Z,8.44
2023-01-06T07:22:00.697Z,8.45
2023-01-06T07:23:00.817Z,8.47
2023-01-06T07:24:00.970Z,8.49
2023-01-06T07:25:01.114Z,8.51
2023-01-06T07:26:00.264Z,8.52
2023-01-06T07:27:00.433Z,8.55
2023-01-06T07:28:00.556Z,8.57
2023-01-06T07:29:00.696Z,8.58
2023-01-06T07:30:00.866Z,8.59
2023-01-06T07:31:01.072Z,8.61
2023-01-06T07:32:01.158Z,8.61
2023-01-06T07:33:00.295Z,8.63
2023-01-06T07:34:00.442Z,8.62
2023-01-06T07:35:00.595Z,8.62
2023-01-06T07:36:00.751Z,8.62
2023-01-06T07:37:00.910Z,8.63
2023-01-06T07:38:01.036Z,8.63
2023-01-06T07:39:01.203Z,8.62
2023-01-06T07:40:00.333Z,8.62
2023-01-06T07:41:00.490Z,8.62
2023-01-06T07:42:00.655Z,8.62
2023-01-06T07:43:00.799Z,8.61
2023-01-06T07:44:00.969Z,8.61
2023-01-06T07:45:01.125Z,8.6
2023-01-06T07:46:01.313Z,8.59
2023-01-06T07:47:00.410Z,8.59
2023-01-06T07:48:00.549Z,8.59
2023-01-06T07:49:00.708Z,8.59
2023-01-06T07:50:00.878Z,8.59
2023-01-06T07:51:00.994Z,8.61
2023-01-06T07:52:01.154Z,8.62
2023-01-06T07:53:00.289Z,8.63
2023-01-06T07:54:00.440Z,8.65
2023-01-06T07:55:00.601Z,8.67
2023-01-06T07:56:00.745Z,8.68
2023-01-06T07:57:00.893Z,8.7
2023-01-06T07:58:01.034Z,8.7
2023-01-06T07:59:01.162Z,8.7
2023-01-06T08:00:00.338Z,8.7
2023-01-06T08:01:00.469Z,8.7
2023-01-06T08:02:00.749Z,8.68
2023-01-06T08:03:00.814Z,8.68
2023-01-06T08:04:00.888Z,8.7
2023-01-06T08:05:01.042Z,8.7
2023-01-06T08:06:01.190Z,8.71
2023-01-06T08:07:00.367Z,8.73
2023-01-06T08:08:00.507Z,8.76
2023-01-06T08:09:00.633Z,8.82
2023-01-06T08:10:00.777Z,8.86
2023-01-06T08:11:00.936Z,8.89
2023-01-06T08:12:01.108Z,8.94
2023-01-06T08:13:01.267Z,8.94
2023-01-06T08:14:00.382Z,8.94
2023-01-06T08:15:00.514Z,8.95
2023-01-06T08:16:00.695Z,8.95
2023-01-06T08:17:00.811Z,8.97
2023-01-06T08:18:00.986Z,9
2023-01-06T08:19:01.105Z,9.05
2023-01-06T08:20:01.258Z,9.1
2023-01-06T08:21:00.398Z,9.14
2023-01-06T08:22:00.565Z,9.15
2023-01-06T08:23:00.734Z,9.15
2023-01-06T08:24:00.839Z,9.17
2023-01-06T08:25:01.007Z,9.19
2023-01-06T08:26:01.126Z,9.2
2023-01-06T08:27:00.267Z,9.22
2023-01-06T08:28:00.482Z,9.23
2023-01-06T08:29:00.574Z,9.26
2023-01-06T08:30:00.731Z,9.29
2023-01-06T08:31:00.893Z,9.31
2023-01-06T08:32:10.402Z,9.34
2023-01-06T08:33:01.179Z,9.39
2023-01-06T08:34:00.332Z,9.44
2023-01-06T08:35:00.482Z,9.48
2023-01-06T08:36:00.610Z,9.49
2023-01-06T08:37:00.789Z,9.5
2023-01-06T08:38:00.925Z,9.51
2023-01-06T08:39:01.042Z,9.53
2023-01-06T08:40:01.222Z,9.55
2023-01-06T08:41:00.358Z,9.56
2023-01-06T08:42:00.515Z,9.6
2023-01-06T08:43:00.650Z,9.62
2023-01-06T08:44:00.813Z,9.64
2023-01-06T08:45:00.959Z,9.65
2023-01-06T08:46:01.196Z,9.67
2023-01-06T08:47:01.279Z,9.7
2023-01-06T08:48:00.402Z,9.71
2023-01-06T08:49:00.549Z,9.76
2023-01-06T08:50:00.700Z,9.78
2023-01-06T08:51:00.866Z,9.8
2023-01-06T08:52:01.021Z,9.82
2023-01-06T08:53:01.188Z,9.85
2023-01-06T08:54:00.299Z,9.86
2023-01-06T08:55:00.438Z,9.88
2023-01-06T08:56:00.608Z,9.89
2023-01-06T08:57:00.753Z,9.9
2023-01-06T08:58:00.904Z,9.91
2023-01-06T08:59:01.044Z,9.92
2023-01-06T09:00:01.206Z,9.93
2023-01-06T09:01:00.346Z,9.97
2023-01-06T09:02:00.634Z,9.98
2023-01-06T09:03:00.615Z,10
2023-01-06T09:04:00.767Z,10.03
2023-01-06T09:05:01.046Z,10.03
2023-01-06T09:06:01.057Z,10.01
2023-01-06T09:07:01.217Z,10.04
2023-01-06T09:08:00.355Z,10.05
2023-01-06T09:09:00.522Z,10.07
2023-01-06T09:10:00.668Z,10.07
2023-01-06T09:11:00.823Z,10.05
2023-01-06T09:12:00.951Z,10.04
2023-01-06T09:13:01.097Z,10.05
2023-01-06T09:14:01.241Z,10.06
2023-01-06T09:15:00.393Z,10.05
2023-01-06T09:16:00.623Z,10.05
2023-01-06T09:17:00.691Z,10.04
2023-01-06T09:18:00.837Z,10.03
2023-01-06T09:19:00.988Z,10
2023-01-06T09:20:01.141Z,10.01
2023-01-06T09:21:00.327Z,10.04
2023-01-06T09:22:01.184Z,10.05
2023-01-06T09:23:00.589Z,10.07
2023-01-06T09:24:00.734Z,10.09
2023-01-06T09:25:00.874Z,10.09
2023-01-06T09:26:01.040Z,10.08
2023-01-06T09:27:01.164Z,10.08
2023-01-06T09:28:00.309Z,10.09
2023-01-06T09:29:00.468Z,10.1
2023-01-06T09:30:00.726Z,10.08
2023-01-06T09:31:00.806Z,10.08
2023-01-06T09:32:00.904Z,10.1
2023-01-06T09:33:01.079Z,10.11
2023-01-06T09:34:01.195Z,10.12
2023-01-06T09:35:00.376Z,10.14
2023-01-06T09:36:00.514Z,10.14
2023-01-06T09:37:00.649Z,10.13
2023-01-06T09:38:00.791Z,10.14
2023-01-06T09:39:00.942Z,10.15
2023-01-06T09:40:01.114Z,10.18
2023-01-06T09:41:01.299Z,10.19
2023-01-06T09:42:00.414Z,10.21
2023-01-06T09:43:00.545Z,10.22
2023-01-06T09:44:00.709Z,10.24
2023-01-06T09:45:00.834Z,10.25
2023-01-06T09:46:00.980Z,10.26
2023-01-06T09:47:01.120Z,10.26
2023-01-06T09:48:00.291Z,10.26
2023-01-06T09:49:00.418Z,10.27
2023-01-06T09:50:00.558Z,10.27
2023-01-06T09:51:00.732Z,10.28
2023-01-06T09:52:00.869Z,10.28
2023-01-06T09:53:01.025Z,10.28
2023-01-06T09:54:01.169Z,10.28
2023-01-06T09:55:00.302Z,10.28
2023-01-06T09:56:00.479Z,10.33
2023-01-06T09:57:00.587Z,10.36
2023-01-06T09:58:00.744Z,10.39
2023-01-06T09:59:00.903Z,10.4
2023-01-06T10:00:01.027Z,10.41
2023-01-06T10:01:01.219Z,10.42
2023-01-06T10:02:00.482Z,10.44
2023-01-06T10:03:00.478Z,10.48
2023-01-06T10:04:00.730Z,10.5
2023-01-06T10:05:00.768Z,10.52
2023-01-06T10:06:00.962Z,10.52
2023-01-06T10:07:01.059Z,10.53
2023-01-06T10:08:01.224Z,10.54
2023-01-06T10:09:00.353Z,10.53
2023-01-06T10:10:00.496Z,10.52
2023-01-06T10:11:00.659Z,10.5
2023-01-06T10:12:00.819Z,10.5
2023-01-06T10:13:00.940Z,10.51
2023-01-06T10:14:01.091Z,10.52
2023-01-06T10:15:01.227Z,10.52
2023-01-06T10:16:00.445Z,10.5
2023-01-06T10:17:00.517Z,10.49
2023-01-06T10:18:00.658Z,10.48
2023-01-06T10:19:00.818Z,10.45
2023-01-06T10:20:00.948Z,10.42
2023-01-06T10:21:01.134Z,10.41
2023-01-06T10:22:01.243Z,10.41
2023-01-06T10:23:00.396Z,10.41
2023-01-06T10:24:00.548Z,10.4
2023-01-06T10:25:00.698Z,10.4
2023-01-06T10:26:00.864Z,10.39
2023-01-06T10:27:00.999Z,10.39
2023-01-06T10:28:01.142Z,10.4
2023-01-06T10:29:00.283Z,10.4
2023-01-06T10:30:00.440Z,10.4
2023-01-06T10:31:00.695Z,10.4
2023-01-06T10:32:00.740Z,10.41
2023-01-06T10:33:00.885Z,10.42
2023-01-06T10:34:01.034Z,10.44
2023-01-06T10:35:01.175Z,10.48
2023-01-06T10:36:00.323Z,10.49
2023-01-06T10:37:00.490Z,10.51
2023-01-06T10:38:00.644Z,10.53
2023-01-06T10:39:00.773Z,10.55
2023-01-06T10:40:00.929Z,10.57
2023-01-06T10:41:01.074Z,10.59
2023-01-06T10:42:01.211Z,10.63
2023-01-06T10:43:00.512Z,10.64
2023-01-06T10:44:00.522Z,10.66
2023-01-06T10:45:00.662Z,10.66
2023-01-06T10:46:00.808Z,10.67
2023-01-06T10:47:00.969Z,10.66
2023-01-06T10:48:01.137Z,10.67
2023-01-06T10:49:01.259Z,10.68
2023-01-06T10:50:00.403Z,10.69
2023-01-06T10:51:00.563Z,10.71
2023-01-06T10:52:00.738Z,10.73
2023-01-06T10:53:00.892Z,10.75
2023-01-06T10:54:01.049Z,10.77
2023-01-06T10:55:01.209Z,10.78
2023-01-06T10:56:00.338Z,10.81
2023-01-06T10:57:00.473Z,10.81
2023-01-06T10:58:00.618Z,10.83
2023-01-06T10:59:00.761Z,10.84
2023-01-06T11:00:00.915Z,10.86
2023-01-06T11:01:01.231Z,10.88
2023-01-06T11:02:01.278Z,10.9
2023-01-06T11:03:14.279Z,10.93
2023-01-06T11:04:00.515Z,10.96
2023-01-06T11:05:00.689Z,10.99
2023-01-06T11:06:00.781Z,11
2023-01-06T11:07:00.939Z,11.01
2023-01-06T11:08:01.177Z,11.04
2023-01-06T11:09:01.262Z,11.04
2023-01-06T11:10:00.377Z,11.05
2023-01-06T11:11:00.542Z,11.08
2023-01-06T11:12:00.703Z,11.09
2023-01-06T11:13:00.854Z,11.11
2023-01-06T11:14:01.077Z,11.13
2023-01-06T11:15:01.149Z,11.14
2023-01-06T11:16:00.310Z,11.15
2023-01-06T11:17:00.431Z,11.15
2023-01-06T11:18:00.592Z,11.15
2023-01-06T11:19:00.812Z,11.15
2023-01-06T11:20:00.889Z,11.14
2023-01-06T11:21:01.034Z,11.14
2023-01-06T11:22:01.178Z,11.12
2023-01-06T11:23:00.345Z,11.13
2023-01-06T11:24:00.483Z,11.11
2023-01-06T11:25:00.618Z,11.09
2023-01-06T11:26:00.754Z,11.09
2023-01-06T11:27:00.904Z,11.08
2023-01-06T11:28:01.053Z,11.05
2023-01-06T11:29:01.221Z,11.05
2023-01-06T11:30:00.371Z,11.05
2023-01-06T11:31:00.509Z,11.05
2023-01-06T11:32:00.649Z,11.05
2023-01-06T11:33:00.803Z,11.05
2023-01-06T11:34:00.962Z,11.04
2023-01-06T11:35:01.105Z,11.02
2023-01-06T11:36:01.237Z,11
2023-01-06T11:37:00.422Z,10.98
2023-01-06T11:38:00.543Z,10.96
2023-01-06T11:39:00.680Z,10.94
2023-01-06T11:40:05.595Z,10.93
2023-01-06T11:41:00.985Z,10.92
2023-01-06T11:42:01.141Z,10.9
2023-01-06T11:43:00.273Z,10.88
2023-01-06T11:44:00.418Z,10.87
2023-01-06T11:45:00.585Z,10.85
2023-01-06T11:46:00.831Z,10.84
2023-01-06T11:47:00.896Z,10.84
2023-01-06T11:48:01.037Z,10.82
2023-01-06T11:49:01.184Z,10.81
2023-01-06T11:50:00.354Z,10.8
2023-01-06T11:51:00.476Z,10.8
2023-01-06T11:52:00.633Z,10.78
2023-01-06T11:53:00.807Z,10.78
2023-01-06T11:54:00.923Z,10.78
2023-01-06T11:55:01.080Z,10.77
2023-01-06T11:56:01.230Z,10.78
2023-01-06T11:57:00.370Z,10.78
2023-01-06T11:58:00.504Z,10.77
2023-01-06T11:59:00.658Z,10.78
2023-01-06T12:00:00.800Z,10.78
2023-01-06T12:01:00.962Z,10.78
2023-01-06T12:02:01.169Z,10.77
2023-01-06T12:03:01.317Z,10.75
2023-01-06T12:04:00.402Z,10.77
2023-01-06T12:05:00.541Z,10.75
2023-01-06T12:06:00.692Z,10.75
2023-01-06T12:07:00.857Z,10.73
2023-01-06T12:08:01.037Z,10.72
2023-01-06T12:09:01.163Z,10.71
2023-01-06T12:10:00.285Z,10.71
2023-01-06T12:11:00.500Z,10.69
2023-01-06T12:12:00.612Z,10.68
2023-01-06T12:13:00.732Z,10.67
2023-01-06T12:14:16.238Z,10.66
2023-01-06T12:15:02.635Z,10.64
2023-01-06T12:16:01.197Z,10.62
2023-01-06T12:17:00.463Z,10.59
2023-01-06T12:18:00.483Z,10.6
2023-01-06T12:19:00.618Z,10.59
2023-01-06T12:20:00.772Z,10.57
2023-01-06T12:21:00.951Z,10.57
2023-01-06T12:22:01.054Z,10.56
2023-01-06T12:23:01.206Z,10.55
2023-01-06T12:24:00.358Z,10.54
2023-01-06T12:25:00.501Z,10.54
2023-01-06T12:26:00.667Z,10.52
2023-01-06T12:27:00.811Z,10.51
2023-01-06T12:28:00.936Z,10.51
2023-01-06T12:29:01.094Z,10.5
2023-01-06T12:30:01.252Z,10.5
2023-01-06T12:31:00.573Z,10.5
2023-01-06T12:32:00.553Z,10.5
2023-01-06T12:33:00.688Z,10.51
2023-01-06T12:34:00.842Z,10.51
2023-01-06T12:35:00.990Z,10.52
2023-01-06T12:36:01.174Z,10.53
2023-01-06T12:37:00.287Z,10.55
2023-01-06T12:38:00.424Z,10.56
2023-01-06T12:39:00.577Z,10.56
2023-01-06T12:40:00.736Z,10.55
2023-01-06T12:41:00.907Z,10.55
2023-01-06T12:42:01.025Z,10.54
2023-01-06T12:43:01.164Z,10.54
2023-01-06T12:44:00.313Z,10.52
2023-01-06T12:45:00.469Z,10.51
2023-01-06T12:46:00.668Z,10.48
2023-01-06T12:47:00.772Z,10.44
2023-01-06T12:48:00.904Z,10.41
2023-01-06T12:49:01.076Z,10.38
2023-01-06T12:50:01.248Z,10.35
2023-01-06T12:51:00.359Z,10.31
2023-01-06T12:52:00.500Z,10.28
2023-01-06T12:53:04.709Z,10.26
2023-01-06T12:54:00.811Z,10.25
2023-01-06T12:55:00.969Z,10.24
2023-01-06T12:56:01.103Z,10.22
2023-01-06T12:57:01.255Z,10.2
2023-01-06T12:58:00.403Z,10.16
2023-01-06T12:59:00.545Z,10.12
2023-01-06T13:00:00.706Z,10.09
2023-01-06T13:01:00.877Z,10.08
2023-01-06T13:02:01.146Z,10.11
2023-01-06T13:03:01.135Z,10.2
2023-01-06T13:04:00.334Z,10.27
2023-01-06T13:05:00.472Z,10.35
2023-01-06T13:06:00.580Z,10.4
2023-01-06T13:07:00.729Z,10.45
2023-01-06T13:08:00.893Z,10.51
2023-01-06T13:09:01.032Z,10.54
2023-01-06T13:10:01.183Z,10.57
2023-01-06T13:11:00.376Z,10.59
2023-01-06T13:12:00.486Z,10.65
2023-01-06T13:13:00.668Z,10.67